sensor_id;sensor_type;location;lat;lon;timestamp;temperature;humidity
12268;DHT22;6196;48.398;11.736;2023-11-19T00:00:15;5.50;99.90
12268;DHT22;6196;48.398;11.736;2023-11-19T00:02:42;5.60;99.90
12268;DHT22;6196;48.398;11.736;2023-11-19T00:05:10;5.50;99.90
12268;DHT22;6196;48.398;11.736;2023-11-19T00:07:41;5.50;99.90
12268;DHT22;6196;48.398;11.736;2023-11-19T00:10:13;5.60;99.90
12268;DHT22;6196;48.398;11.736;2023-11-19T00:12:42;5.70;99.90
12268;DHT22;6196;48.398;11.736;2023-11-19T00:15:11;5.70;99.90
12268;DHT22;6196;48.398;11.736;2023-11-19T00:17:45;5.70;99.90
12268;DHT22;6196;48.398;11.736;2023-11-19T00:20:14;5.60;99.90
12268;DHT22;6196;48.398;11.736;2023-11-19T00:22:42;5.50;99.90
12268;DHT22;6196;48.398;11.736;2023-11-19T00:25:12;5.60;99.90
12268;DHT22;6196;48.398;11.736;2023-11-19T00:27:39;5.60;99.90
12268;DHT22;6196;48.398;11.736;2023-11-19T00:30:07;5.50;99.90
12268;DHT22;6196;48.398;11.736;2023-11-19T00:32:37;5.60;99.90
12268;DHT22;6196;48.398;11.736;2023-11-19T00:35:06;5.60;99.90
12268;DHT22;6196;48.398;11.736;2023-11-19T00:37:34;5.60;99.90
12268;DHT22;6196;48.398;11.736;2023-11-19T00:40:01;5.50;99.90
12268;DHT22;6196;48.398;11.736;2023-11-19T00:42:32;5.60;99.90
12268;DHT22;6196;48.398;11.736;2023-11-19T00:44:59;5.50;99.90
12268;DHT22;6196;48.398;11.736;2023-11-19T00:47:26;5.50;99.90
12268;DHT22;6196;48.398;11.736;2023-11-19T00:49:52;5.60;99.90
12268;DHT22;6196;48.398;11.736;2023-11-19T00:52:19;5.70;99.90
12268;DHT22;6196;48.398;11.736;2023-11-19T00:54:46;5.70;99.90
12268;DHT22;6196;48.398;11.736;2023-11-19T00:57:13;5.60;99.90
12268;DHT22;6196;48.398;11.736;2023-11-19T00:59:43;5.60;99.90
12268;DHT22;6196;48.398;11.736;2023-11-19T01:02:10;5.60;99.90
12268;DHT22;6196;48.398;11.736;2023-11-19T01:04:37;5.70;99.90
12268;DHT22;6196;48.398;11.736;2023-11-19T01:07:05;5.70;99.90
12268;DHT22;6196;48.398;11.736;2023-11-19T01:09:33;5.70;99.90
12268;DHT22;6196;48.398;11.736;2023-11-19T01:12:03;5.60;99.90
12268;DHT22;6196;48.398;11.736;2023-11-19T01:14:30;5.60;99.90
12268;DHT22;6196;48.398;11.736;2023-11-19T01:16:57;5.60;99.90
12268;DHT22;6196;48.398;11.736;2023-11-19T01:19:24;5.60;99.90
12268;DHT22;6196;48.398;11.736;2023-11-19T01:21:51;5.60;99.90
12268;DHT22;6196;48.398;11.736;2023-11-19T01:24:18;6.70;99.90
12268;DHT22;6196;48.398;11.736;2023-11-19T01:26:46;5.60;99.90
12268;DHT22;6196;48.398;11.736;2023-11-19T01:29:16;5.70;99.90
12268;DHT22;6196;48.398;11.736;2023-11-19T01:31:43;5.80;99.90
12268;DHT22;6196;48.398;11.736;2023-11-19T01:34:12;5.70;99.90
12268;DHT22;6196;48.398;11.736;2023-11-19T01:36:40;5.70;99.90
12268;DHT22;6196;48.398;11.736;2023-11-19T01:39:06;5.70;99.90
12268;DHT22;6196;48.398;11.736;2023-11-19T01:41:35;5.70;99.90
12268;DHT22;6196;48.398;11.736;2023-11-19T01:44:08;5.30;99.90
12268;DHT22;6196;48.398;11.736;2023-11-19T01:46:36;5.80;99.90
12268;DHT22;6196;48.398;11.736;2023-11-19T01:49:03;6.00;99.90
12268;DHT22;6196;48.398;11.736;2023-11-19T01:51:32;5.80;99.90
12268;DHT22;6196;48.398;11.736;2023-11-19T01:53:59;5.90;99.90
12268;DHT22;6196;48.398;11.736;2023-11-19T01:56:26;5.80;99.90
12268;DHT22;6196;48.398;11.736;2023-11-19T01:58:54;5.80;99.90
12268;DHT22;6196;48.398;11.736;2023-11-19T02:01:22;5.90;99.90
12268;DHT22;6196;48.398;11.736;2023-11-19T02:03:50;5.90;99.90
12268;DHT22;6196;48.398;11.736;2023-11-19T02:06:18;5.90;99.90
12268;DHT22;6196;48.398;11.736;2023-11-19T02:08:46;6.10;99.90
12268;DHT22;6196;48.398;11.736;2023-11-19T02:11:12;5.90;99.90
12268;DHT22;6196;48.398;11.736;2023-11-19T02:13:40;6.00;99.90
12268;DHT22;6196;48.398;11.736;2023-11-19T02:16:08;6.00;99.90
12268;DHT22;6196;48.398;11.736;2023-11-19T02:18:36;6.00;99.90
12268;DHT22;6196;48.398;11.736;2023-11-19T02:21:03;5.90;99.90
12268;DHT22;6196;48.398;11.736;2023-11-19T02:23:32;6.00;99.90
12268;DHT22;6196;48.398;11.736;2023-11-19T02:26:12;5.90;99.90
12268;DHT22;6196;48.398;11.736;2023-11-19T02:28:42;6.00;99.90
12268;DHT22;6196;48.398;11.736;2023-11-19T02:31:10;6.00;99.90
12268;DHT22;6196;48.398;11.736;2023-11-19T02:33:38;6.00;99.90
12268;DHT22;6196;48.398;11.736;2023-11-19T02:36:07;6.10;99.90
12268;DHT22;6196;48.398;11.736;2023-11-19T02:38:35;6.10;99.90
12268;DHT22;6196;48.398;11.736;2023-11-19T02:41:07;6.80;99.90
12268;DHT22;6196;48.398;11.736;2023-11-19T02:43:34;6.10;99.90
12268;DHT22;6196;48.398;11.736;2023-11-19T02:46:03;6.20;99.90
12268;DHT22;6196;48.398;11.736;2023-11-19T02:48:38;6.20;99.90
12268;DHT22;6196;48.398;11.736;2023-11-19T02:51:05;6.20;99.90
12268;DHT22;6196;48.398;11.736;2023-11-19T02:53:36;6.30;99.90
12268;DHT22;6196;48.398;11.736;2023-11-19T02:56:04;6.30;99.90
12268;DHT22;6196;48.398;11.736;2023-11-19T02:58:38;6.30;99.90
12268;DHT22;6196;48.398;11.736;2023-11-19T03:01:05;6.30;99.90
12268;DHT22;6196;48.398;11.736;2023-11-19T03:03:50;6.30;99.90
12268;DHT22;6196;48.398;11.736;2023-11-19T03:06:25;6.40;99.90
12268;DHT22;6196;48.398;11.736;2023-11-19T03:08:52;6.40;99.90
12268;DHT22;6196;48.398;11.736;2023-11-19T03:11:19;6.40;99.90
12268;DHT22;6196;48.398;11.736;2023-11-19T03:13:46;6.40;99.90
12268;DHT22;6196;48.398;11.736;2023-11-19T03:16:13;6.40;99.90
12268;DHT22;6196;48.398;11.736;2023-11-19T03:18:40;6.40;99.90
12268;DHT22;6196;48.398;11.736;2023-11-19T03:21:07;6.50;99.90
12268;DHT22;6196;48.398;11.736;2023-11-19T03:23:35;6.50;99.90
12268;DHT22;6196;48.398;11.736;2023-11-19T03:26:03;6.50;99.90
12268;DHT22;6196;48.398;11.736;2023-11-19T03:28:32;6.50;99.90
12268;DHT22;6196;48.398;11.736;2023-11-19T03:30:59;6.50;99.90
12268;DHT22;6196;48.398;11.736;2023-11-19T03:33:26;6.60;99.90
12268;DHT22;6196;48.398;11.736;2023-11-19T03:35:56;6.60;99.90
12268;DHT22;6196;48.398;11.736;2023-11-19T03:38:24;6.60;99.90
12268;DHT22;6196;48.398;11.736;2023-11-19T03:40:53;6.60;99.90
12268;DHT22;6196;48.398;11.736;2023-11-19T03:43:20;6.60;99.90
12268;DHT22;6196;48.398;11.736;2023-11-19T03:45:47;6.70;99.90
12268;DHT22;6196;48.398;11.736;2023-11-19T03:48:15;6.70;99.90
12268;DHT22;6196;48.398;11.736;2023-11-19T03:50:45;6.70;99.90
12268;DHT22;6196;48.398;11.736;2023-11-19T03:53:12;6.70;99.90
12268;DHT22;6196;48.398;11.736;2023-11-19T03:55:40;6.80;99.90
12268;DHT22;6196;48.398;11.736;2023-11-19T03:58:07;6.80;99.90
12268;DHT22;6196;48.398;11.736;2023-11-19T04:00:34;6.80;99.90
12268;DHT22;6196;48.398;11.736;2023-11-19T04:03:00;6.70;99.90
12268;DHT22;6196;48.398;11.736;2023-11-19T04:05:27;6.80;99.90
12268;DHT22;6196;48.398;11.736;2023-11-19T04:07:54;6.80;99.90
12268;DHT22;6196;48.398;11.736;2023-11-19T04:10:21;6.80;99.90
12268;DHT22;6196;48.398;11.736;2023-11-19T04:12:49;6.80;99.90
12268;DHT22;6196;48.398;11.736;2023-11-19T04:15:16;7.10;99.90
12268;DHT22;6196;48.398;11.736;2023-11-19T04:17:43;6.90;99.90
12268;DHT22;6196;48.398;11.736;2023-11-19T04:20:11;6.90;99.90
12268;DHT22;6196;48.398;11.736;2023-11-19T04:22:41;7.10;99.90
12268;DHT22;6196;48.398;11.736;2023-11-19T04:25:08;7.30;99.90
12268;DHT22;6196;48.398;11.736;2023-11-19T04:27:36;7.50;99.90
12268;DHT22;6196;48.398;11.736;2023-11-19T04:30:03;7.70;99.90
12268;DHT22;6196;48.398;11.736;2023-11-19T04:32:31;7.80;99.90
12268;DHT22;6196;48.398;11.736;2023-11-19T04:34:58;8.00;99.90
12268;DHT22;6196;48.398;11.736;2023-11-19T04:37:25;8.30;99.90
12268;DHT22;6196;48.398;11.736;2023-11-19T04:39:52;8.90;99.90
12268;DHT22;6196;48.398;11.736;2023-11-19T04:42:21;8.40;99.90
12268;DHT22;6196;48.398;11.736;2023-11-19T04:44:49;8.50;99.90
12268;DHT22;6196;48.398;11.736;2023-11-19T04:47:16;8.60;99.90
12268;DHT22;6196;48.398;11.736;2023-11-19T04:49:43;8.70;99.90
12268;DHT22;6196;48.398;11.736;2023-11-19T04:52:10;8.80;99.90
12268;DHT22;6196;48.398;11.736;2023-11-19T04:54:45;8.70;99.90
12268;DHT22;6196;48.398;11.736;2023-11-19T04:57:12;8.80;99.90
12268;DHT22;6196;48.398;11.736;2023-11-19T04:59:39;8.80;99.90
12268;DHT22;6196;48.398;11.736;2023-11-19T05:02:08;9.00;99.90
12268;DHT22;6196;48.398;11.736;2023-11-19T05:04:35;8.80;99.90
12268;DHT22;6196;48.398;11.736;2023-11-19T05:07:02;9.00;99.90
12268;DHT22;6196;48.398;11.736;2023-11-19T05:09:30;8.90;99.90
12268;DHT22;6196;48.398;11.736;2023-11-19T05:11:58;8.90;99.90
12268;DHT22;6196;48.398;11.736;2023-11-19T05:14:24;8.90;99.90
12268;DHT22;6196;48.398;11.736;2023-11-19T05:16:51;8.90;99.90
12268;DHT22;6196;48.398;11.736;2023-11-19T05:19:18;9.10;99.90
12268;DHT22;6196;48.398;11.736;2023-11-19T05:21:45;9.10;99.90
12268;DHT22;6196;48.398;11.736;2023-11-19T05:24:12;9.00;99.90
12268;DHT22;6196;48.398;11.736;2023-11-19T05:26:40;9.10;99.90
12268;DHT22;6196;48.398;11.736;2023-11-19T05:29:07;9.10;99.90
12268;DHT22;6196;48.398;11.736;2023-11-19T05:31:34;9.10;99.90
12268;DHT22;6196;48.398;11.736;2023-11-19T05:34:03;9.30;99.90
12268;DHT22;6196;48.398;11.736;2023-11-19T05:36:31;9.10;99.90
12268;DHT22;6196;48.398;11.736;2023-11-19T05:38:58;9.10;99.90
12268;DHT22;6196;48.398;11.736;2023-11-19T05:41:25;9.10;99.90
12268;DHT22;6196;48.398;11.736;2023-11-19T05:43:52;9.20;99.90
12268;DHT22;6196;48.398;11.736;2023-11-19T05:46:19;9.10;99.90
12268;DHT22;6196;48.398;11.736;2023-11-19T05:48:47;9.20;99.90
12268;DHT22;6196;48.398;11.736;2023-11-19T05:51:15;9.20;99.90
12268;DHT22;6196;48.398;11.736;2023-11-19T05:53:43;9.20;99.90
12268;DHT22;6196;48.398;11.736;2023-11-19T05:56:10;9.20;99.90
12268;DHT22;6196;48.398;11.736;2023-11-19T05:58:37;9.20;99.90
12268;DHT22;6196;48.398;11.736;2023-11-19T06:01:06;9.20;99.90
12268;DHT22;6196;48.398;11.736;2023-11-19T06:03:35;9.30;99.90
12268;DHT22;6196;48.398;11.736;2023-11-19T06:06:02;9.10;99.90
12268;DHT22;6196;48.398;11.736;2023-11-19T06:08:29;9.30;99.90
12268;DHT22;6196;48.398;11.736;2023-11-19T06:10:57;9.30;99.90
12268;DHT22;6196;48.398;11.736;2023-11-19T06:13:24;9.40;99.90
12268;DHT22;6196;48.398;11.736;2023-11-19T06:15:52;9.40;99.90
12268;DHT22;6196;48.398;11.736;2023-11-19T06:18:19;9.50;99.90
12268;DHT22;6196;48.398;11.736;2023-11-19T06:20:47;9.60;99.90
12268;DHT22;6196;48.398;11.736;2023-11-19T06:23:14;9.50;99.90
12268;DHT22;6196;48.398;11.736;2023-11-19T06:25:41;9.50;99.90
12268;DHT22;6196;48.398;11.736;2023-11-19T06:28:08;9.50;99.90
12268;DHT22;6196;48.398;11.736;2023-11-19T06:30:36;9.50;99.90
12268;DHT22;6196;48.398;11.736;2023-11-19T06:33:03;9.60;99.90
12268;DHT22;6196;48.398;11.736;2023-11-19T06:35:30;9.60;99.90
12268;DHT22;6196;48.398;11.736;2023-11-19T06:38:03;9.60;99.90
12268;DHT22;6196;48.398;11.736;2023-11-19T06:40:34;9.70;99.90
12268;DHT22;6196;48.398;11.736;2023-11-19T06:43:04;9.60;99.90
12268;DHT22;6196;48.398;11.736;2023-11-19T06:45:31;9.60;99.90
12268;DHT22;6196;48.398;11.736;2023-11-19T06:48:01;9.80;99.90
12268;DHT22;6196;48.398;11.736;2023-11-19T06:50:30;9.70;99.90
12268;DHT22;6196;48.398;11.736;2023-11-19T06:52:58;9.70;99.90
12268;DHT22;6196;48.398;11.736;2023-11-19T06:55:26;9.70;99.90
12268;DHT22;6196;48.398;11.736;2023-11-19T06:57:53;9.80;99.90
12268;DHT22;6196;48.398;11.736;2023-11-19T07:00:20;9.90;99.90
12268;DHT22;6196;48.398;11.736;2023-11-19T07:02:47;9.90;99.90
12268;DHT22;6196;48.398;11.736;2023-11-19T07:05:15;9.90;99.90
12268;DHT22;6196;48.398;11.736;2023-11-19T07:07:41;10.00;99.90
12268;DHT22;6196;48.398;11.736;2023-11-19T07:10:08;10.00;99.90
12268;DHT22;6196;48.398;11.736;2023-11-19T07:12:36;10.00;99.90
12268;DHT22;6196;48.398;11.736;2023-11-19T07:15:04;9.90;99.90
12268;DHT22;6196;48.398;11.736;2023-11-19T07:17:32;10.00;99.90
12268;DHT22;6196;48.398;11.736;2023-11-19T07:19:59;10.00;99.90
12268;DHT22;6196;48.398;11.736;2023-11-19T07:22:26;10.00;99.90
12268;DHT22;6196;48.398;11.736;2023-11-19T07:24:56;10.00;99.90
12268;DHT22;6196;48.398;11.736;2023-11-19T07:27:23;10.10;99.90
12268;DHT22;6196;48.398;11.736;2023-11-19T07:29:51;10.10;99.90
12268;DHT22;6196;48.398;11.736;2023-11-19T07:32:18;10.10;99.90
12268;DHT22;6196;48.398;11.736;2023-11-19T07:34:45;10.10;99.90
12268;DHT22;6196;48.398;11.736;2023-11-19T07:37:11;10.20;99.90
12268;DHT22;6196;48.398;11.736;2023-11-19T07:39:39;10.40;99.90
12268;DHT22;6196;48.398;11.736;2023-11-19T07:42:08;10.40;99.90
12268;DHT22;6196;48.398;11.736;2023-11-19T07:44:36;10.30;99.90
12268;DHT22;6196;48.398;11.736;2023-11-19T07:47:03;10.50;99.90
12268;DHT22;6196;48.398;11.736;2023-11-19T07:49:31;10.40;99.90
12268;DHT22;6196;48.398;11.736;2023-11-19T07:51:58;10.40;99.90
12268;DHT22;6196;48.398;11.736;2023-11-19T07:54:25;10.50;99.90
12268;DHT22;6196;48.398;11.736;2023-11-19T07:56:52;10.50;99.90
12268;DHT22;6196;48.398;11.736;2023-11-19T07:59:19;10.50;99.90
12268;DHT22;6196;48.398;11.736;2023-11-19T08:01:47;10.60;99.90
12268;DHT22;6196;48.398;11.736;2023-11-19T08:04:14;10.70;99.90
12268;DHT22;6196;48.398;11.736;2023-11-19T08:06:42;10.70;99.90
12268;DHT22;6196;48.398;11.736;2023-11-19T08:09:09;10.70;99.90
12268;DHT22;6196;48.398;11.736;2023-11-19T08:11:41;10.70;99.90
12268;DHT22;6196;48.398;11.736;2023-11-19T08:14:08;10.70;99.90
12268;DHT22;6196;48.398;11.736;2023-11-19T08:16:35;10.70;99.90
12268;DHT22;6196;48.398;11.736;2023-11-19T08:19:04;10.80;99.90
12268;DHT22;6196;48.398;11.736;2023-11-19T08:21:31;10.90;99.90
12268;DHT22;6196;48.398;11.736;2023-11-19T08:23:58;10.90;99.90
12268;DHT22;6196;48.398;11.736;2023-11-19T08:26:25;11.00;99.90
12268;DHT22;6196;48.398;11.736;2023-11-19T08:28:51;11.10;99.90
12268;DHT22;6196;48.398;11.736;2023-11-19T08:31:19;11.40;99.90
12268;DHT22;6196;48.398;11.736;2023-11-19T08:33:46;11.50;99.90
12268;DHT22;6196;48.398;11.736;2023-11-19T08:36:16;11.40;99.90
12268;DHT22;6196;48.398;11.736;2023-11-19T08:38:44;11.30;99.90
12268;DHT22;6196;48.398;11.736;2023-11-19T08:41:11;11.30;99.90
12268;DHT22;6196;48.398;11.736;2023-11-19T08:43:38;11.40;99.90
12268;DHT22;6196;48.398;11.736;2023-11-19T08:46:10;11.30;99.90
12268;DHT22;6196;48.398;11.736;2023-11-19T08:48:38;11.40;99.90
12268;DHT22;6196;48.398;11.736;2023-11-19T08:51:05;11.40;99.90
12268;DHT22;6196;48.398;11.736;2023-11-19T08:53:32;11.50;99.90
12268;DHT22;6196;48.398;11.736;2023-11-19T08:55:59;11.50;99.90
12268;DHT22;6196;48.398;11.736;2023-11-19T08:58:28;11.50;99.90
12268;DHT22;6196;48.398;11.736;2023-11-19T09:00:55;11.50;99.90
12268;DHT22;6196;48.398;11.736;2023-11-19T09:03:23;11.60;99.90
12268;DHT22;6196;48.398;11.736;2023-11-19T09:05:50;11.70;99.90
12268;DHT22;6196;48.398;11.736;2023-11-19T09:08:18;11.70;99.90
12268;DHT22;6196;48.398;11.736;2023-11-19T09:10:45;11.90;99.90
12268;DHT22;6196;48.398;11.736;2023-11-19T09:13:12;12.00;99.90
12268;DHT22;6196;48.398;11.736;2023-11-19T09:15:39;12.00;99.90
12268;DHT22;6196;48.398;11.736;2023-11-19T09:18:06;12.10;99.90
12268;DHT22;6196;48.398;11.736;2023-11-19T09:20:33;12.10;99.90
12268;DHT22;6196;48.398;11.736;2023-11-19T09:23:05;12.20;99.90
12268;DHT22;6196;48.398;11.736;2023-11-19T09:25:33;12.30;99.90
12268;DHT22;6196;48.398;11.736;2023-11-19T09:28:03;12.30;99.90
12268;DHT22;6196;48.398;11.736;2023-11-19T09:30:30;12.20;99.90
12268;DHT22;6196;48.398;11.736;2023-11-19T09:33:00;12.30;99.90
12268;DHT22;6196;48.398;11.736;2023-11-19T09:35:28;12.40;99.90
12268;DHT22;6196;48.398;11.736;2023-11-19T09:37:55;12.60;99.90
12268;DHT22;6196;48.398;11.736;2023-11-19T09:40:22;12.70;99.90
12268;DHT22;6196;48.398;11.736;2023-11-19T09:42:49;13.10;99.90
12268;DHT22;6196;48.398;11.736;2023-11-19T09:45:17;13.60;99.90
12268;DHT22;6196;48.398;11.736;2023-11-19T09:47:45;13.90;99.90
12268;DHT22;6196;48.398;11.736;2023-11-19T09:50:17;13.80;99.90
12268;DHT22;6196;48.398;11.736;2023-11-19T09:52:47;13.40;99.90
12268;DHT22;6196;48.398;11.736;2023-11-19T09:55:14;13.20;99.90
12268;DHT22;6196;48.398;11.736;2023-11-19T09:57:41;13.10;99.90
12268;DHT22;6196;48.398;11.736;2023-11-19T10:00:11;13.00;99.90
12268;DHT22;6196;48.398;11.736;2023-11-19T10:02:40;13.00;99.90
12268;DHT22;6196;48.398;11.736;2023-11-19T10:05:09;13.00;99.90
12268;DHT22;6196;48.398;11.736;2023-11-19T10:07:36;13.10;99.90
12268;DHT22;6196;48.398;11.736;2023-11-19T10:10:04;13.30;99.90
12268;DHT22;6196;48.398;11.736;2023-11-19T10:12:32;13.60;99.90
12268;DHT22;6196;48.398;11.736;2023-11-19T10:14:59;14.10;99.90
12268;DHT22;6196;48.398;11.736;2023-11-19T10:17:33;14.30;99.90
12268;DHT22;6196;48.398;11.736;2023-11-19T10:20:01;14.70;99.90
12268;DHT22;6196;48.398;11.736;2023-11-19T10:22:28;14.80;99.90
12268;DHT22;6196;48.398;11.736;2023-11-19T10:24:55;15.00;99.90
12268;DHT22;6196;48.398;11.736;2023-11-19T10:27:24;15.30;99.90
12268;DHT22;6196;48.398;11.736;2023-11-19T10:29:52;15.00;99.90
12268;DHT22;6196;48.398;11.736;2023-11-19T10:32:19;15.00;99.90
12268;DHT22;6196;48.398;11.736;2023-11-19T10:35:07;15.30;99.90
12268;DHT22;6196;48.398;11.736;2023-11-19T10:37:34;15.30;99.90
12268;DHT22;6196;48.398;11.736;2023-11-19T10:40:04;15.30;99.90
12268;DHT22;6196;48.398;11.736;2023-11-19T10:42:32;15.40;99.90
12268;DHT22;6196;48.398;11.736;2023-11-19T10:44:59;15.40;99.90
12268;DHT22;6196;48.398;11.736;2023-11-19T10:47:27;15.10;99.90
12268;DHT22;6196;48.398;11.736;2023-11-19T10:50:00;15.20;99.90
12268;DHT22;6196;48.398;11.736;2023-11-19T10:52:27;15.70;99.90
12268;DHT22;6196;48.398;11.736;2023-11-19T10:54:56;16.30;99.90
12268;DHT22;6196;48.398;11.736;2023-11-19T10:57:30;16.80;99.90
12268;DHT22;6196;48.398;11.736;2023-11-19T11:00:02;17.30;99.90
12268;DHT22;6196;48.398;11.736;2023-11-19T11:02:40;17.40;99.90
12268;DHT22;6196;48.398;11.736;2023-11-19T11:05:09;17.50;99.90
12268;DHT22;6196;48.398;11.736;2023-11-19T11:07:39;17.80;99.90
12268;DHT22;6196;48.398;11.736;2023-11-19T11:10:08;17.70;99.90
12268;DHT22;6196;48.398;11.736;2023-11-19T11:12:37;17.30;99.90
12268;DHT22;6196;48.398;11.736;2023-11-19T11:15:11;16.60;99.90
12268;DHT22;6196;48.398;11.736;2023-11-19T11:17:43;16.50;99.90
12268;DHT22;6196;48.398;11.736;2023-11-19T11:20:11;16.40;99.90
12268;DHT22;6196;48.398;11.736;2023-11-19T11:23:15;16.40;99.90
12268;DHT22;6196;48.398;11.736;2023-11-19T11:26:05;15.90;99.90
12268;DHT22;6196;48.398;11.736;2023-11-19T11:28:43;15.30;99.90
12268;DHT22;6196;48.398;11.736;2023-11-19T11:31:26;14.70;99.90
12268;DHT22;6196;48.398;11.736;2023-11-19T11:37:18;15.80;99.90
12268;DHT22;6196;48.398;11.736;2023-11-19T11:40:02;16.90;99.90
12268;DHT22;6196;48.398;11.736;2023-11-19T11:42:37;17.90;99.90
12268;DHT22;6196;48.398;11.736;2023-11-19T11:45:11;18.80;99.90
12268;DHT22;6196;48.398;11.736;2023-11-19T11:50:17;18.70;99.90
12268;DHT22;6196;48.398;11.736;2023-11-19T11:55:51;18.40;99.90
12268;DHT22;6196;48.398;11.736;2023-11-19T11:58:25;17.90;99.90
12268;DHT22;6196;48.398;11.736;2023-11-19T12:00:53;19.40;99.90
12268;DHT22;6196;48.398;11.736;2023-11-19T12:03:21;20.30;99.90
12268;DHT22;6196;48.398;11.736;2023-11-19T12:05:49;20.50;99.90
12268;DHT22;6196;48.398;11.736;2023-11-19T12:08:24;21.10;99.90
12268;DHT22;6196;48.398;11.736;2023-11-19T12:10:55;22.10;99.90
12268;DHT22;6196;48.398;11.736;2023-11-19T12:13:55;22.00;99.90
12268;DHT22;6196;48.398;11.736;2023-11-19T12:16:24;20.80;99.90
12268;DHT22;6196;48.398;11.736;2023-11-19T12:18:54;19.30;99.90
12268;DHT22;6196;48.398;11.736;2023-11-19T12:21:31;18.40;99.90
12268;DHT22;6196;48.398;11.736;2023-11-19T12:23:59;17.20;99.90
12268;DHT22;6196;48.398;11.736;2023-11-19T12:26:35;17.00;99.90
12268;DHT22;6196;48.398;11.736;2023-11-19T12:29:03;18.30;99.90
12268;DHT22;6196;48.398;11.736;2023-11-19T12:31:35;20.00;99.90
12268;DHT22;6196;48.398;11.736;2023-11-19T12:34:05;20.90;99.90
12268;DHT22;6196;48.398;11.736;2023-11-19T12:36:34;20.80;99.90
12268;DHT22;6196;48.398;11.736;2023-11-19T12:39:01;21.90;99.90
12268;DHT22;6196;48.398;11.736;2023-11-19T12:41:28;23.00;99.90
12268;DHT22;6196;48.398;11.736;2023-11-19T12:44:09;23.70;99.90
12268;DHT22;6196;48.398;11.736;2023-11-19T12:46:38;23.80;99.90
12268;DHT22;6196;48.398;11.736;2023-11-19T12:49:06;24.20;99.90
12268;DHT22;6196;48.398;11.736;2023-11-19T12:51:33;25.20;99.90
12268;DHT22;6196;48.398;11.736;2023-11-19T12:54:00;24.60;99.90
12268;DHT22;6196;48.398;11.736;2023-11-19T12:56:27;23.70;99.90
12268;DHT22;6196;48.398;11.736;2023-11-19T12:58:54;22.40;99.90
12268;DHT22;6196;48.398;11.736;2023-11-19T13:01:21;21.40;99.90
12268;DHT22;6196;48.398;11.736;2023-11-19T13:03:48;20.40;99.90
12268;DHT22;6196;48.398;11.736;2023-11-19T13:06:16;19.20;99.90
12268;DHT22;6196;48.398;11.736;2023-11-19T13:08:45;18.00;99.90
12268;DHT22;6196;48.398;11.736;2023-11-19T13:11:30;17.20;99.90
12268;DHT22;6196;48.398;11.736;2023-11-19T13:14:05;16.50;99.90
12268;DHT22;6196;48.398;11.736;2023-11-19T13:16:37;16.10;99.90
12268;DHT22;6196;48.398;11.736;2023-11-19T13:19:05;16.00;99.90
12268;DHT22;6196;48.398;11.736;2023-11-19T13:21:32;15.90;99.90
12268;DHT22;6196;48.398;11.736;2023-11-19T13:23:59;15.80;99.90
12268;DHT22;6196;48.398;11.736;2023-11-19T13:26:26;15.60;99.90
12268;DHT22;6196;48.398;11.736;2023-11-19T13:28:53;16.50;99.90
12268;DHT22;6196;48.398;11.736;2023-11-19T13:31:20;19.00;99.90
12268;DHT22;6196;48.398;11.736;2023-11-19T13:33:47;20.10;99.90
12268;DHT22;6196;48.398;11.736;2023-11-19T13:36:14;19.90;99.90
12268;DHT22;6196;48.398;11.736;2023-11-19T13:38:43;19.90;99.90
12268;DHT22;6196;48.398;11.736;2023-11-19T13:41:13;18.70;99.90
12268;DHT22;6196;48.398;11.736;2023-11-19T13:43:41;18.00;99.90
12268;DHT22;6196;48.398;11.736;2023-11-19T13:46:08;17.60;99.90
12268;DHT22;6196;48.398;11.736;2023-11-19T13:48:38;17.20;99.90
12268;DHT22;6196;48.398;11.736;2023-11-19T13:51:06;16.90;99.90
12268;DHT22;6196;48.398;11.736;2023-11-19T13:53:33;17.00;99.90
12268;DHT22;6196;48.398;11.736;2023-11-19T13:56:17;17.30;99.90
12268;DHT22;6196;48.398;11.736;2023-11-19T13:58:44;18.40;99.90
12268;DHT22;6196;48.398;11.736;2023-11-19T14:01:11;18.50;99.90
12268;DHT22;6196;48.398;11.736;2023-11-19T14:03:40;18.40;99.90
12268;DHT22;6196;48.398;11.736;2023-11-19T14:06:08;17.50;99.90
12268;DHT22;6196;48.398;11.736;2023-11-19T14:08:35;17.10;99.90
12268;DHT22;6196;48.398;11.736;2023-11-19T14:11:02;16.70;99.90
12268;DHT22;6196;48.398;11.736;2023-11-19T14:13:30;16.40;99.90
12268;DHT22;6196;48.398;11.736;2023-11-19T14:15:57;16.00;99.90
12268;DHT22;6196;48.398;11.736;2023-11-19T14:18:24;15.70;99.90
12268;DHT22;6196;48.398;11.736;2023-11-19T14:20:51;15.60;99.90
12268;DHT22;6196;48.398;11.736;2023-11-19T14:23:17;15.60;99.90
12268;DHT22;6196;48.398;11.736;2023-11-19T14:25:44;15.40;99.90
12268;DHT22;6196;48.398;11.736;2023-11-19T14:28:11;15.20;99.90
12268;DHT22;6196;48.398;11.736;2023-11-19T14:30:38;15.00;99.90
12268;DHT22;6196;48.398;11.736;2023-11-19T14:33:05;15.50;99.90
12268;DHT22;6196;48.398;11.736;2023-11-19T14:35:33;15.40;99.90
12268;DHT22;6196;48.398;11.736;2023-11-19T14:38:00;15.10;99.90
12268;DHT22;6196;48.398;11.736;2023-11-19T14:40:31;14.90;99.90
12268;DHT22;6196;48.398;11.736;2023-11-19T14:43:01;14.70;99.90
12268;DHT22;6196;48.398;11.736;2023-11-19T14:45:28;14.40;99.90
12268;DHT22;6196;48.398;11.736;2023-11-19T14:48:05;14.40;99.90
12268;DHT22;6196;48.398;11.736;2023-11-19T14:50:32;14.40;99.90
12268;DHT22;6196;48.398;11.736;2023-11-19T14:52:59;14.40;99.90
12268;DHT22;6196;48.398;11.736;2023-11-19T14:55:26;14.40;99.90
12268;DHT22;6196;48.398;11.736;2023-11-19T14:57:53;14.30;99.90
12268;DHT22;6196;48.398;11.736;2023-11-19T15:00:33;14.20;99.90
12268;DHT22;6196;48.398;11.736;2023-11-19T15:03:00;14.20;99.90
12268;DHT22;6196;48.398;11.736;2023-11-19T15:05:28;14.20;99.90
12268;DHT22;6196;48.398;11.736;2023-11-19T15:07:56;14.10;99.90
12268;DHT22;6196;48.398;11.736;2023-11-19T15:10:23;13.90;99.90
12268;DHT22;6196;48.398;11.736;2023-11-19T15:12:52;13.80;99.90
12268;DHT22;6196;48.398;11.736;2023-11-19T15:15:20;13.80;99.90
12268;DHT22;6196;48.398;11.736;2023-11-19T15:17:50;14.00;99.90
12268;DHT22;6196;48.398;11.736;2023-11-19T15:20:17;13.90;99.90
12268;DHT22;6196;48.398;11.736;2023-11-19T15:22:46;13.70;99.90
12268;DHT22;6196;48.398;11.736;2023-11-19T15:25:13;13.70;99.90
12268;DHT22;6196;48.398;11.736;2023-11-19T15:27:40;13.80;99.90
12268;DHT22;6196;48.398;11.736;2023-11-19T15:30:08;13.60;99.90
12268;DHT22;6196;48.398;11.736;2023-11-19T15:32:37;13.60;99.90
12268;DHT22;6196;48.398;11.736;2023-11-19T15:35:04;13.50;99.90
12268;DHT22;6196;48.398;11.736;2023-11-19T15:37:34;13.60;99.90
12268;DHT22;6196;48.398;11.736;2023-11-19T15:40:01;13.70;99.90
12268;DHT22;6196;48.398;11.736;2023-11-19T15:42:30;13.40;99.90
12268;DHT22;6196;48.398;11.736;2023-11-19T15:44:57;13.50;99.90
12268;DHT22;6196;48.398;11.736;2023-11-19T15:47:24;13.40;99.90
12268;DHT22;6196;48.398;11.736;2023-11-19T15:49:51;13.40;99.90
12268;DHT22;6196;48.398;11.736;2023-11-19T15:52:18;13.30;99.90
12268;DHT22;6196;48.398;11.736;2023-11-19T15:54:45;13.20;99.90